Time;durP1;ratioP1;P1;durP2;ratioP2;P2;SDS_P1;SDS_P2;PMS_P1;PMS_P2;Temp;Humidity;BMP_temperature;BMP_pressure;BME280_temperature;BME280_humidity;BME280_pressure;Samples;Min_cycle;Max_cycle;Signal;HPM_P1;HPM_P2
2023/05/09 00:00:19;;;;;;;33.17;23.55;;;;;;;14.99;100.00;101740.47;5102246;28;20055;-68
2023/05/09 00:02:44;;;;;;;30.65;23.15;;;;;;;14.95;100.00;101731.00;5102076;28;20015;-68
2023/05/09 00:05:10;;;;;;;27.30;22.23;;;;;;;14.92;100.00;101726.78;5100064;28;20488;-68
2023/05/09 00:07:35;;;;;;;25.92;20.55;;;;;;;14.93;100.00;101722.25;5105162;28;20472;-68
2023/05/09 00:10:00;;;;;;;;;;;;;;;15.10;100.00;101726.84;5104803;27;20213;-68
2023/05/09 00:12:27;;;;;;;25.50;20.47;;;;;;;14.94;100.00;101722.13;5102556;28;19941;-68
2023/05/09 00:14:53;;;;;;;30.85;20.67;;;;;;;14.94;100.00;101723.97;5099663;28;20294;-67
2023/05/09 00:17:18;;;;;;;;;;;;;;;15.09;100.00;101716.22;5104335;28;20085;-68
2023/05/09 00:19:44;;;;;;;28.65;21.25;;;;;;;14.86;100.00;101722.00;5101427;28;20428;-68
2023/05/09 00:22:11;;;;;;;27.45;20.40;;;;;;;14.88;100.00;101712.00;5097426;28;20038;-68
2023/05/09 00:24:37;;;;;;;24.52;20.05;;;;;;;14.84;100.00;101713.25;5101199;28;20093;-68
2023/05/09 00:27:02;;;;;;;;;;;;;;;15.03;100.00;101716.84;5102405;28;20432;-67
2023/05/09 00:29:27;;;;;;;22.80;19.17;;;;;;;14.90;100.00;101706.44;5098046;28;19969;-68
2023/05/09 00:31:53;;;;;;;23.42;19.05;;;;;;;14.84;100.00;101710.56;5098910;28;20469;-67
2023/05/09 00:34:18;;;;;;;25.88;19.30;;;;;;;14.82;100.00;101699.13;5099172;28;20057;-68
2023/05/09 00:36:43;;;;;;;24.73;18.92;;;;;;;14.79;100.00;101694.06;5101574;28;20488;-67
2023/05/09 00:39:09;;;;;;;23.92;19.02;;;;;;;14.80;100.00;101694.94;5103873;28;20042;-68
2023/05/09 00:41:34;;;;;;;28.55;20.10;;;;;;;14.88;100.00;101695.00;5102266;28;20444;-68
2023/05/09 00:43:59;;;;;;;23.35;18.33;;;;;;;14.78;100.00;101703.13;5100332;28;20020;-67
2023/05/09 00:46:24;;;;;;;;;;;;;;;15.00;100.00;101709.09;5098741;28;20446;-68
2023/05/09 00:48:51;;;;;;;26.13;19.93;;;;;;;14.86;100.00;101702.38;5100782;28;19912;-67
2023/05/09 00:51:17;;;;;;;21.60;18.75;;;;;;;14.90;100.00;101693.00;5103706;28;20364;-68
2023/05/09 00:53:42;;;;;;;;;;;;;;;15.03;100.00;101682.75;5103398;27;20468;-68
2023/05/09 00:56:08;;;;;;;24.52;17.73;;;;;;;14.86;100.00;101683.56;5102233;28;19920;-68
2023/05/09 00:58:34;;;;;;;24.67;17.27;;;;;;;14.84;100.00;101682.88;5100742;28;20023;-68
2023/05/09 01:01:01;;;;;;;;;;;;;;;14.99;100.00;101676.00;5095983;28;20130;-68
2023/05/09 01:03:26;;;;;;;19.73;16.20;;;;;;;14.85;100.00;101669.31;5103818;28;19969;-68
2023/05/09 01:05:57;;;;;;;19.85;15.80;;;;;;;14.86;100.00;101665.59;5103088;28;20051;-68
2023/05/09 01:08:39;;;;;;;20.45;15.35;;;;;;;14.86;100.00;101665.59;5108886;28;20043;-68
2023/05/09 01:11:20;;;;;;;21.52;15.88;;;;;;;14.81;100.00;101656.31;5103134;28;20050;-68
2023/05/09 01:14:28;;;;;;;19.80;15.93;;;;;;;14.91;100.00;101666.00;5101610;28;20031;-68
2023/05/09 01:17:32;;;;;;;20.88;15.93;;;;;;;14.89;100.00;101659.94;5024219;28;20112;-68
2023/05/09 01:20:12;;;;;;;17.90;15.23;;;;;;;14.85;100.00;101655.88;5090675;27;20040;-68
2023/05/09 01:22:47;;;;;;;18.50;15.73;;;;;;;14.80;100.00;101643.91;5104201;28;20031;-68
2023/05/09 01:25:48;;;;;;;19.60;15.48;;;;;;;14.87;100.00;101640.44;5106080;28;20084;-68
2023/05/09 01:28:28;;;;;;;18.27;14.93;;;;;;;14.86;100.00;101635.22;5103454;28;20559;-68
2023/05/09 01:30:54;;;;;;;20.10;14.73;;;;;;;14.81;100.00;101626.78;5101247;28;20031;-68
2023/05/09 01:33:20;;;;;;;;;;;;;;;14.96;100.00;101625.25;5106347;28;20020;-68
2023/05/09 01:35:52;;;;;;;20.10;15.50;;;;;;;14.83;100.00;101630.16;5104094;27;19912;-68
2023/05/09 01:38:22;;;;;;;20.02;15.32;;;;;;;14.83;100.00;101630.16;5100103;28;20105;-69
2023/05/09 01:40:51;;;;;;;24.17;17.27;;;;;;;14.87;100.00;101612.75;5105219;28;20042;-68
2023/05/09 01:43:19;;;;;;;18.55;14.90;;;;;;;14.81;100.00;101619.56;5102252;28;20027;-68
2023/05/09 01:45:45;;;;;;;21.80;16.33;;;;;;;14.80;100.00;101611.69;5106581;28;20145;-68
2023/05/09 01:48:12;;;;;;;22.27;17.63;;;;;;;14.78;100.00;101608.28;5104813;28;20028;-68
2023/05/09 01:50:39;;;;;;;24.55;18.23;;;;;;;14.76;100.00;101605.72;5104065;28;20088;-68
2023/05/09 01:53:05;;;;;;;18.00;16.10;;;;;;;14.74;100.00;101600.53;5100523;28;20028;-68
2023/05/09 01:55:33;;;;;;;;;;;;;;;14.92;100.00;101610.47;5105646;28;20109;-69
2023/05/09 01:57:59;;;;;;;19.13;16.00;;;;;;;14.74;100.00;101605.03;5098288;28;19920;-69
2023/05/09 02:00:25;;;;;;;20.80;17.10;;;;;;;14.71;100.00;101598.16;5105746;28;20110;-68
2023/05/09 02:02:52;;;;;;;23.05;17.63;;;;;;;14.68;100.00;101595.75;5105332;27;20216;-69
2023/05/09 02:05:18;;;;;;;21.15;16.73;;;;;;;14.65;100.00;101600.59;5100052;27;20023;-68
2023/05/09 02:07:46;;;;;;;21.45;16.02;;;;;;;14.67;100.00;101590.53;5100652;28;20031;-68
2023/05/09 02:10:12;;;;;;;19.98;16.90;;;;;;;14.63;100.00;101584.63;5102934;28;20513;-68
2023/05/09 02:12:38;;;;;;;22.17;15.88;;;;;;;14.63;100.00;101581.94;5103043;28;20042;-68
2023/05/09 02:15:05;;;;;;;23.08;17.02;;;;;;;14.61;100.00;101585.78;5095993;28;20047;-69
2023/05/09 02:17:31;;;;;;;21.65;15.35;;;;;;;14.62;100.00;101585.63;5105959;27;20041;-68
2023/05/09 02:19:56;;;;;;;;;;;;;;;14.77;100.00;101593.16;5101232;28;20023;-68
2023/05/09 02:22:21;;;;;;;21.87;15.97;;;;;;;14.56;100.00;101597.75;5098923;28;19919;-69
2023/05/09 02:24:47;;;;;;;;;;;;;;;14.74;100.00;101607.72;5097603;27;20281;-69
2023/05/09 02:27:14;;;;;;;20.27;16.07;;;;;;;14.56;100.00;101588.88;5095438;28;19919;-66
2023/05/09 02:29:44;;;;;;;24.90;18.40;;;;;;;14.55;100.00;101598.78;5104211;28;20289;-69
2023/05/09 02:32:20;;;;;;;23.30;16.60;;;;;;;14.53;100.00;101598.09;5102713;28;20039;-69
2023/05/09 02:34:47;;;;;;;21.48;16.55;;;;;;;14.50;100.00;101597.53;5098859;28;20031;-68
2023/05/09 02:37:13;;;;;;;21.75;17.90;;;;;;;14.46;100.00;101597.00;5099473;28;20120;-68
2023/05/09 02:39:39;;;;;;;;;;;;;;;14.62;100.00;101598.19;5101997;28;20050;-68
2023/05/09 02:42:07;;;;;;;28.58;18.15;;;;;;;14.43;100.00;101599.97;5101892;28;19957;-68
2023/05/09 02:44:33;;;;;;;23.02;17.27;;;;;;;14.38;100.00;101596.91;5105413;28;20492;-68
2023/05/09 02:46:58;;;;;;;22.80;18.13;;;;;;;14.34;100.00;101584.75;5103793;28;20203;-68
2023/05/09 02:49:23;;;;;;;;;;;;;;;14.53;100.00;101581.13;5098449;28;20068;-69
2023/05/09 02:51:49;;;;;;;21.08;16.73;;;;;;;14.36;100.00;101575.56;5099810;28;20296;-68
2023/05/09 02:54:14;;;;;;;;;;;;;;;14.50;100.00;101581.44;5100165;28;20373;-68
2023/05/09 02:56:39;;;;;;;23.00;17.57;;;;;;;14.36;100.00;101574.72;5098223;28;19927;-69
2023/05/09 02:59:04;;;;;;;;;;;;;;;14.49;100.00;101569.00;5105226;27;20323;-69
2023/05/09 03:01:30;;;;;;;22.73;16.60;;;;;;;14.34;100.00;101563.28;5102198;28;19916;-68
2023/05/09 03:03:55;;;;;;;22.75;16.88;;;;;;;14.31;100.00;101558.22;5101099;27;20494;-69
2023/05/09 03:06:20;;;;;;;;;;;;;;;14.46;100.00;101556.75;5105918;28;20024;-69
2023/05/09 03:08:46;;;;;;;23.13;17.50;;;;;;;14.33;100.00;101553.56;5099473;28;19919;-68
2023/05/09 03:11:11;;;;;;;23.63;18.05;;;;;;;14.30;100.00;101553.84;5101582;28;20596;-68
2023/05/09 03:13:36;;;;;;;26.58;18.13;;;;;;;14.28;100.00;101550.47;5099319;28;20027;-68
2023/05/09 03:16:01;;;;;;;;;;;;;;;14.42;100.00;101547.28;5102806;28;20370;-69
2023/05/09 03:18:27;;;;;;;23.47;17.97;;;;;;;14.27;100.00;101546.09;5105812;28;20200;-69
2023/05/09 03:20:52;;;;;;;26.52;17.98;;;;;;;14.24;100.00;101549.09;5100627;28;20079;-69
2023/05/09 03:23:17;;;;;;;;;;;;;;;14.40;100.00;101549.28;5096914;28;20373;-69
2023/05/09 03:25:42;;;;;;;23.07;17.33;;;;;;;14.26;100.00;101549.78;5096710;28;19926;-69
2023/05/09 03:28:08;;;;;;;23.33;17.42;;;;;;;14.28;100.00;101539.75;5099457;27;20577;-69
2023/05/09 03:30:33;;;;;;;21.30;17.02;;;;;;;14.26;100.00;101539.06;5096830;28;20460;-68
2023/05/09 03:32:58;;;;;;;24.80;17.95;;;;;;;14.25;100.00;101542.72;5100580;28;20016;-68
2023/05/09 03:35:23;;;;;;;26.08;19.05;;;;;;;14.22;100.00;101533.16;5100709;28;20027;-69
2023/05/09 03:37:49;;;;;;;24.13;17.20;;;;;;;14.25;100.00;101543.56;5100599;28;20031;-69
2023/05/09 03:40:14;;;;;;;24.48;17.88;;;;;;;14.16;100.00;101534.59;5097184;28;20056;-69
2023/05/09 03:42:39;;;;;;;21.25;16.77;;;;;;;14.20;100.00;101535.13;5091971;28;20027;-69
2023/05/09 03:45:05;;;;;;;25.58;19.02;;;;;;;14.20;100.00;101529.78;5098909;28;20435;-68
2023/05/09 03:47:30;;;;;;;;;;;;;;;14.33;100.00;101529.41;5101043;28;20032;-69
2023/05/09 03:49:56;;;;;;;25.03;18.13;;;;;;;14.24;100.00;101524.94;5092077;28;19915;-68
2023/05/09 03:52:21;;;;;;;24.73;18.17;;;;;;;14.20;100.00;101524.41;5098932;28;20073;-68
2023/05/09 03:54:46;;;;;;;22.25;17.63;;;;;;;14.18;100.00;101527.22;5100090;28;20054;-69
2023/05/09 03:57:11;;;;;;;21.25;17.42;;;;;;;14.21;100.00;101514.50;5103676;28;20070;-68
2023/05/09 03:59:37;;;;;;;;;;;;;;;14.33;100.00;101526.72;5098440;28;20020;-68
2023/05/09 04:02:02;;;;;;;23.90;17.07;;;;;;;14.19;100.00;101520.03;5095405;28;19990;-68
2023/05/09 04:04:27;;;;;;;22.90;17.15;;;;;;;14.21;100.00;101519.88;5099110;28;20035;-68
2023/05/09 04:06:52;;;;;;;;;;;;;;;14.31;100.00;101513.44;5096118;28;20036;-68
2023/05/09 04:09:18;;;;;;;20.13;15.07;;;;;;;14.21;100.00;101501.09;5104292;27;19920;-68
2023/05/09 04:11:43;;;;;;;;;;;;;;;14.31;100.00;101501.88;5105186;27;20452;-68
2023/05/09 04:14:08;;;;;;;17.77;14.37;;;;;;;14.14;100.00;101495.47;5100438;28;19911;-69
2023/05/09 04:16:34;;;;;;;;;;;;;;;14.29;100.00;101499.34;5098374;28;20296;-68
2023/05/09 04:18:59;;;;;;;16.83;14.30;;;;;;;14.12;100.00;101492.09;5094703;28;19916;-68
2023/05/09 04:21:24;;;;;;;;;;;;;;;14.27;100.00;101492.44;5115675;27;20362;-68
2023/05/09 04:23:50;;;;;;;18.43;13.83;;;;;;;14.13;100.00;101491.97;5097875;28;19915;-67
2023/05/09 04:26:16;;;;;;;17.50;14.05;;;;;;;14.13;100.00;101489.28;5101963;28;20023;-68
2023/05/09 04:28:42;;;;;;;16.98;13.57;;;;;;;14.17;100.00;101497.88;5099173;28;20574;-67
2023/05/09 04:31:07;;;;;;;;;;;;;;;14.28;100.00;101492.28;5102487;28;20338;-68
2023/05/09 04:33:33;;;;;;;17.55;12.48;;;;;;;14.18;100.00;101486.13;5094038;28;19911;-68
2023/05/09 04:35:58;;;;;;;;;;;;;;;14.31;100.00;101489.31;5093359;28;20052;-68
2023/05/09 04:38:23;;;;;;;19.77;16.65;;;;;;;14.22;100.00;101487.53;5099798;28;20233;-68
2023/05/09 04:40:49;;;;;;;;;;;;;;;14.37;100.00;101493.22;5097911;28;20027;-68
2023/05/09 04:43:14;;;;;;;16.40;13.20;;;;;;;14.27;100.00;101485.25;5097969;28;19919;-68
2023/05/09 04:45:40;;;;;;;;;;;;;;;14.43;100.00;101489.06;5100814;28;20050;-68
2023/05/09 04:48:05;;;;;;;16.55;13.77;;;;;;;14.32;100.00;101479.41;5098909;28;19912;-68
2023/05/09 04:50:30;;;;;;;;;;;;;;;14.47;100.00;101469.84;5100952;28;20389;-68
2023/05/09 04:52:56;;;;;;;14.93;12.57;;;;;;;14.38;100.00;101476.97;5098888;28;19922;-68
2023/05/09 04:55:21;;;;;;;;;;;;;;;14.53;100.00;101473.75;5092853;28;20042;-68
2023/05/09 04:57:46;;;;;;;14.35;12.85;;;;;;;14.39;100.00;101472.44;5098307;28;20359;-68
2023/05/09 05:00:12;;;;;;;15.57;12.98;;;;;;;14.45;100.00;101462.94;5101073;28;20028;-69
2023/05/09 05:02:37;;;;;;;;;;;;;;;14.62;100.00;101469.31;5099508;28;20030;-68
2023/05/09 05:05:03;;;;;;;13.70;12.10;;;;;;;14.50;100.00;101449.91;5097808;28;19972;-67
2023/05/09 05:07:28;;;;;;;;;;;;;;;14.68;100.00;101449.94;5097023;28;20145;-68
2023/05/09 05:09:54;;;;;;;16.13;12.97;;;;;;;14.60;100.00;101444.47;5094079;28;19922;-68
2023/05/09 05:12:19;;;;;;;;;;;;;;;14.74;100.00;101441.25;5098861;28;20293;-68
2023/05/09 05:14:44;;;;;;;14.50;12.60;;;;;;;14.62;100.00;101437.13;5099252;28;20375;-68
2023/05/09 05:17:09;;;;;;;16.98;12.98;;;;;;;14.62;100.00;101427.25;5096849;28;20028;-68
2023/05/09 05:19:34;;;;;;;;;;;;;;;14.78;100.00;101425.66;5099461;28;20019;-68
2023/05/09 05:22:00;;;;;;;16.33;13.10;;;;;;;14.66;100.00;101428.59;5095729;28;19998;-68
2023/05/09 05:24:25;;;;;;;;;;;;;;;14.81;100.00;101428.03;5099532;28;20291;-68
2023/05/09 05:26:50;;;;;;;18.10;12.77;;;;;;;14.70;100.00;101421.09;5098755;28;19931;-68
2023/05/09 05:29:16;;;;;;;17.70;13.80;;;;;;;14.70;100.00;101418.41;5097168;28;20064;-67
2023/05/09 05:31:42;;;;;;;15.45;13.10;;;;;;;14.75;100.00;101411.56;5100790;28;20496;-67
2023/05/09 05:34:07;;;;;;;16.08;13.30;;;;;;;14.75;100.00;101414.25;5096403;28;20086;-67
2023/05/09 05:36:32;;;;;;;;;;;;;;;14.99;100.00;101411.88;5105140;28;20425;-68
2023/05/09 05:38:58;;;;;;;17.50;13.27;;;;;;;14.96;100.00;101409.53;5092396;28;19912;-67
2023/05/09 05:41:23;;;;;;;17.02;12.73;;;;;;;14.98;100.00;101412.91;5098441;28;20679;-68
2023/05/09 05:43:48;;;;;;;16.63;12.93;;;;;;;15.08;100.00;101405.59;5097057;28;20030;-68
2023/05/09 05:46:13;;;;;;;;;;;;;;;15.26;100.00;101414.41;5097073;28;20015;-68
2023/05/09 05:48:39;;;;;;;19.43;12.83;;;;;;;15.15;100.00;101403.94;5100919;28;19912;-68
2023/05/09 05:51:04;;;;;;;;;;;;;;;15.36;100.00;101408.94;5092453;28;20292;-68
2023/05/09 05:53:29;;;;;;;15.63;12.90;;;;;;;15.29;100.00;101405.22;5092769;28;19912;-68
2023/05/09 05:55:55;;;;;;;15.32;12.52;;;;;;;15.32;100.00;101394.97;5093211;28;20304;-68
2023/05/09 05:58:20;;;;;;;15.57;12.93;;;;;;;15.37;100.00;101394.47;5091893;28;20107;-68
2023/05/09 06:00:45;;;;;;;;;;;;;;;15.56;100.00;101395.25;5099724;28;20024;-68
2023/05/09 06:03:13;;;;;;;21.48;12.75;;;;;;;15.42;100.00;101389.47;5101427;28;19919;-68
2023/05/09 06:05:43;;;;;;;14.90;12.52;;;;;;;15.51;100.00;101390.34;5106076;28;20103;-68
2023/05/09 06:08:08;;;;;;;13.57;11.77;;;;;;;15.62;100.00;101394.59;5092633;28;20056;-67
2023/05/09 06:10:34;;;;;;;15.52;12.85;;;;;;;15.59;100.00;101386.88;5105347;28;20051;-68
2023/05/09 06:12:59;;;;;;;17.98;11.90;;;;;;;15.69;100.00;101383.03;5109111;28;20030;-68
2023/05/09 06:15:24;;;;;;;13.38;11.98;;;;;;;15.73;100.00;101377.34;5105070;27;20031;-66
2023/05/09 06:17:50;;;;;;;13.40;11.70;;;;;;;15.80;100.00;101378.41;5107858;28;20035;-68
2023/05/09 06:20:15;;;;;;;13.85;11.15;;;;;;;15.80;100.00;101376.53;5106863;28;20107;-67
2023/05/09 06:22:40;;;;;;;15.13;11.27;;;;;;;15.76;100.00;101375.19;5105931;28;20483;-68
2023/05/09 06:25:06;;;;;;;15.52;11.98;;;;;;;15.77;100.00;101376.03;5105531;28;20110;-68
2023/05/09 06:27:31;;;;;;;12.30;11.00;;;;;;;15.89;100.00;101377.41;5107685;28;20043;-68
2023/05/09 06:29:57;;;;;;;14.13;10.70;;;;;;;15.90;100.00;101376.41;5111311;27;20354;-68
2023/05/09 06:32:23;;;;;;;14.45;12.38;;;;;;;15.85;100.00;101371.50;5104939;28;20024;-68
2023/05/09 06:34:49;;;;;;;13.35;11.48;;;;;;;15.91;100.00;101364.63;5108488;28;20020;-68
2023/05/09 06:37:14;;;;;;;14.77;11.05;;;;;;;15.91;100.00;101370.00;5107210;28;20019;-68
2023/05/09 06:39:39;;;;;;;14.05;11.38;;;;;;;15.90;100.00;101370.16;5110667;28;20098;-68
2023/05/09 06:42:05;;;;;;;14.45;11.15;;;;;;;15.95;100.00;101360.59;5105403;28;20066;-68
2023/05/09 06:44:31;;;;;;;14.07;11.40;;;;;;;15.96;100.00;101364.13;5104640;28;20024;-68
2023/05/09 06:46:57;;;;;;;12.80;10.73;;;;;;;15.98;100.00;101357.56;5106523;28;20026;-68
2023/05/09 06:49:22;;;;;;;12.35;10.82;;;;;;;16.00;100.00;101357.41;5103990;27;20892;-68
2023/05/09 06:51:47;;;;;;;15.25;11.65;;;;;;;15.99;100.00;101351.19;5101513;28;20024;-68
2023/05/09 06:54:12;;;;;;;15.07;11.15;;;;;;;16.05;100.00;101344.31;5107316;28;20051;-68
2023/05/09 06:56:38;;;;;;;16.88;10.32;;;;;;;16.11;100.00;101348.19;5108448;28;20024;-68
2023/05/09 06:59:03;;;;;;;12.23;10.70;;;;;;;16.06;100.00;101344.16;5108249;27;20015;-68
2023/05/09 07:01:29;;;;;;;13.00;10.90;;;;;;;16.15;100.00;101345.00;5107053;28;20019;-69
2023/05/09 07:03:54;;;;;;;14.30;10.77;;;;;;;16.10;100.00;101341.97;5106281;28;20024;-68
2023/05/09 07:06:19;;;;;;;12.15;10.75;;;;;;;16.13;100.00;101340.78;5102759;28;20099;-68
2023/05/09 07:08:45;;;;;;;13.52;9.80;;;;;;;16.12;100.00;101339.94;5106719;28;20016;-67
2023/05/09 07:11:10;;;;;;;10.68;9.57;;;;;;;16.15;100.00;101334.22;5101249;27;20028;-68
2023/05/09 07:13:35;;;;;;;13.15;10.20;;;;;;;16.15;100.00;101339.63;5098593;28;20030;-68
2023/05/09 07:16:01;;;;;;;10.95;9.55;;;;;;;16.13;100.00;101332.69;5105512;28;20020;-68
2023/05/09 07:18:26;;;;;;;9.93;8.93;;;;;;;16.10;100.00;101325.81;5105491;28;20054;-68
2023/05/09 07:20:51;;;;;;;11.55;9.07;;;;;;;16.07;100.00;101326.13;5107069;28;20063;-68
2023/05/09 07:23:17;;;;;;;9.85;8.82;;;;;;;16.13;100.00;101330.00;5098348;28;20020;-68
2023/05/09 07:25:44;;;;;;;13.65;9.63;;;;;;;16.02;100.00;101323.09;5111746;27;20045;-69
2023/05/09 07:28:11;;;;;;;10.77;8.82;;;;;;;15.98;100.00;101327.97;5107980;27;20023;-67
2023/05/09 07:30:36;;;;;;;10.90;8.18;;;;;;;15.91;100.00;101326.13;5107534;28;20373;-67
2023/05/09 07:33:01;;;;;;;9.13;7.95;;;;;;;15.92;100.00;101325.97;5098026;28;20040;-68
2023/05/09 07:35:27;;;;;;;10.98;8.35;;;;;;;15.89;100.00;101331.69;5104811;28;20109;-68
2023/05/09 07:37:52;;;;;;;10.65;7.53;;;;;;;15.90;100.00;101330.69;5105743;28;20037;-67
2023/05/09 07:40:17;;;;;;;9.02;8.10;;;;;;;15.93;100.00;101329.50;5104339;28;20032;-67
2023/05/09 07:42:48;;;;;;;10.02;8.38;;;;;;;15.85;100.00;101324.94;5103411;28;20049;-68
2023/05/09 07:45:16;;;;;;;9.60;8.27;;;;;;;15.81;100.00;101320.88;5100744;28;20094;-68
2023/05/09 07:47:42;;;;;;;9.02;8.13;;;;;;;15.83;100.00;101325.13;5100175;28;20030;-68
2023/05/09 07:50:07;;;;;;;10.07;8.95;;;;;;;15.84;100.00;101321.41;5101878;28;20035;-69
2023/05/09 07:52:32;;;;;;;10.55;8.77;;;;;;;15.78;100.00;101314.00;5103548;28;20043;-69
2023/05/09 07:54:58;;;;;;;10.00;8.48;;;;;;;15.79;100.00;101320.22;5101052;28;20031;-69
2023/05/09 07:57:23;;;;;;;10.15;8.25;;;;;;;15.86;100.00;101315.84;5098959;28;20046;-69
2023/05/09 07:59:48;;;;;;;9.52;8.13;;;;;;;15.77;100.00;101311.47;5105016;28;20476;-69
2023/05/09 08:02:14;;;;;;;8.57;7.70;;;;;;;15.84;100.00;101302.56;5097213;28;20110;-69
2023/05/09 08:04:40;;;;;;;9.13;8.23;;;;;;;15.81;100.00;101302.94;5106310;28;20440;-66
2023/05/09 08:07:06;;;;;;;11.02;8.50;;;;;;;15.91;100.00;101307.31;5104225;28;20031;-69
2023/05/09 08:09:31;;;;;;;10.00;7.40;;;;;;;16.01;100.00;101298.06;5103419;28;20043;-67
2023/05/09 08:11:57;;;;;;;9.68;7.80;;;;;;;16.12;100.00;101287.97;5105948;28;20024;-69
2023/05/09 08:14:22;;;;;;;8.00;7.25;;;;;;;16.18;100.00;101290.84;5101600;28;20434;-68
2023/05/09 08:16:48;;;;;;;7.72;6.93;;;;;;;16.33;100.00;101282.09;5103463;28;20059;-68
2023/05/09 08:19:13;;;;;;;8.68;7.38;;;;;;;16.35;100.00;101272.81;5104396;28;20031;-68
2023/05/09 08:21:38;;;;;;;7.50;6.80;;;;;;;16.36;100.00;101277.19;5105895;27;20540;-67
2023/05/09 08:24:06;;;;;;;7.15;6.30;;;;;;;16.32;100.00;101266.94;5098695;28;20089;-68
2023/05/09 08:26:32;;;;;;;7.22;6.53;;;;;;;16.31;100.00;101263.41;5104254;28;20043;-68
2023/05/09 08:28:57;;;;;;;7.53;6.82;;;;;;;16.28;100.00;101252.13;5101007;28;20113;-67
2023/05/09 08:31:23;;;;;;;7.93;6.55;;;;;;;16.36;100.00;101255.66;5102170;28;20039;-68
2023/05/09 08:33:48;;;;;;;7.45;6.68;;;;;;;16.33;100.00;101261.38;5100484;28;20502;-68
2023/05/09 08:36:13;;;;;;;7.43;6.53;;;;;;;16.31;100.00;101260.72;5101350;27;20031;-68
2023/05/09 08:38:39;;;;;;;7.80;7.00;;;;;;;16.24;100.00;101249.78;5103699;28;20464;-68
2023/05/09 08:41:05;;;;;;;8.32;7.43;;;;;;;16.13;100.00;101250.13;5102980;28;20061;-68
2023/05/09 08:43:32;;;;;;;8.02;7.13;;;;;;;16.04;100.00;101248.44;5098984;28;20032;-68
2023/05/09 08:46:00;;;;;;;8.32;7.40;;;;;;;16.16;100.00;101249.78;5103963;28;20027;-68
2023/05/09 08:48:27;;;;;;;7.55;6.85;;;;;;;16.15;100.00;101241.91;5103623;28;20404;-68
2023/05/09 08:50:54;;;;;;;8.90;7.35;;;;;;;16.26;100.00;101245.06;5103789;28;20023;-69
2023/05/09 08:53:20;;;;;;;7.82;6.93;;;;;;;16.19;100.00;101243.22;5100470;28;20041;-69
2023/05/09 08:55:46;;;;;;;9.90;7.10;;;;;;;16.18;100.00;101242.41;5106636;28;20080;-69
2023/05/09 08:58:13;;;;;;;8.85;6.57;;;;;;;16.24;100.00;101236.31;5097921;28;20492;-69
2023/05/09 09:00:40;;;;;;;8.18;6.53;;;;;;;16.26;100.00;101238.84;5102512;28;20022;-69
2023/05/09 09:03:06;;;;;;;7.25;6.13;;;;;;;16.22;100.00;101235.66;5101865;28;20032;-69
2023/05/09 09:05:41;;;;;;;6.90;6.20;;;;;;;16.28;100.00;101234.13;5107419;28;20024;-69
2023/05/09 09:08:08;;;;;;;5.88;5.28;;;;;;;16.16;100.00;101232.81;5100308;28;20035;-69
2023/05/09 09:10:33;;;;;;;7.55;4.78;;;;;;;16.11;100.00;101236.03;5098791;28;20027;-70
2023/05/09 09:13:00;;;;;;;5.95;4.82;;;;;;;16.03;100.00;101233.31;5099602;28;20026;-69
2023/05/09 09:15:35;;;;;;;6.35;4.97;;;;;;;16.05;100.00;101229.44;5100220;28;20102;-69
2023/05/09 09:18:10;;;;;;;4.80;4.40;;;;;;;16.02;100.00;101228.94;5103181;28;20023;-69
2023/05/09 09:20:48;;;;;;;5.63;4.45;;;;;;;16.03;100.00;101218.00;5099525;28;20032;-69
2023/05/09 09:23:19;;;;;;;5.30;4.70;;;;;;;16.04;100.00;101229.59;5095730;28;20031;-70
2023/05/09 09:25:47;;;;;;;6.13;4.72;;;;;;;16.09;100.00;101224.56;5100706;28;20130;-70
2023/05/09 09:28:13;;;;;;;5.97;4.70;;;;;;;16.09;100.00;101216.50;5102229;28;20062;-70
2023/05/09 09:30:47;;;;;;;5.68;5.10;;;;;;;16.19;100.00;101208.25;5101768;28;20059;-70
2023/05/09 09:33:22;;;;;;;4.47;4.07;;;;;;;16.11;100.00;101211.81;5103071;28;20036;-70
2023/05/09 09:35:49;;;;;;;4.80;4.25;;;;;;;16.21;100.00;101208.91;5105811;28;20030;-70
2023/05/09 09:38:20;;;;;;;6.25;4.30;;;;;;;16.19;100.00;101210.94;5102374;28;20185;-67
2023/05/09 09:41:03;;;;;;;5.85;4.30;;;;;;;16.35;100.00;101205.50;5100921;28;20027;-68
2023/05/09 09:43:30;;;;;;;5.40;3.95;;;;;;;16.43;100.00;101199.28;5100597;28;20059;-68
2023/05/09 09:45:56;;;;;;;4.68;3.83;;;;;;;16.52;100.00;101208.19;5110005;27;20371;-69
2023/05/09 09:48:25;;;;;;;6.22;4.43;;;;;;;16.60;100.00;101200.94;5100402;27;20032;-69
2023/05/09 09:50:54;;;;;;;5.15;4.20;;;;;;;16.54;100.00;101198.91;5101150;28;20059;-69
2023/05/09 09:53:20;;;;;;;4.45;3.97;;;;;;;16.52;100.00;101200.94;5100989;28;20417;-69
2023/05/09 09:55:52;;;;;;;4.93;4.43;;;;;;;16.47;100.00;101195.22;5102699;28;20020;-69
2023/05/09 09:58:23;;;;;;;5.50;4.70;;;;;;;16.35;100.00;101197.44;5097892;28;20031;-69
2023/05/09 10:01:06;;;;;;;7.20;5.18;;;;;;;16.54;100.00;101195.38;5106676;27;20112;-69
2023/05/09 10:03:40;;;;;;;5.07;4.55;;;;;;;16.47;100.00;101189.00;5105254;28;20082;-68
2023/05/09 10:06:13;;;;;;;5.53;4.82;;;;;;;16.42;100.00;101176.06;5102654;28;20555;-68
2023/05/09 10:08:39;;;;;;;5.75;5.15;;;;;;;16.39;100.00;101182.66;5100448;28;20035;-68
2023/05/09 10:11:05;;;;;;;5.35;4.55;;;;;;;16.36;100.00;101184.84;5099603;28;20043;-68
2023/05/09 10:13:33;;;;;;;5.13;4.47;;;;;;;16.35;100.00;101180.47;5101635;28;20255;-69
2023/05/09 10:15:59;;;;;;;5.03;4.45;;;;;;;16.22;100.00;101181.84;5104854;28;20031;-69
2023/05/09 10:18:29;;;;;;;5.97;4.55;;;;;;;16.23;100.00;101172.75;5102455;28;20110;-68
2023/05/09 10:20:56;;;;;;;5.80;5.05;;;;;;;16.18;100.00;101180.50;5106501;28;20031;-68
2023/05/09 10:23:23;;;;;;;5.22;4.72;;;;;;;16.13;100.00;101171.25;5099072;28;20047;-68
2023/05/09 10:25:57;;;;;;;6.50;5.00;;;;;;;16.18;100.00;101174.25;5098649;27;20023;-69
2023/05/09 10:28:30;;;;;;;5.22;4.63;;;;;;;16.21;100.00;101169.38;5101291;27;20042;-69
2023/05/09 10:31:10;;;;;;;5.72;5.15;;;;;;;16.13;100.00;101166.72;5098831;28;20027;-69
2023/05/09 10:33:49;;;;;;;5.53;5.03;;;;;;;16.14;100.00;101165.69;5102893;28;20093;-69
2023/05/09 10:36:19;;;;;;;6.22;5.22;;;;;;;16.11;100.00;101165.19;5083914;27;20024;-69
2023/05/09 10:38:45;;;;;;;6.45;5.65;;;;;;;16.09;100.00;101162.66;5099785;28;20026;-69
2023/05/09 10:41:12;;;;;;;5.32;4.82;;;;;;;16.14;100.00;101157.63;5100489;28;20035;-68
2023/05/09 10:43:38;;;;;;;5.95;5.35;;;;;;;16.07;100.00;101152.06;5104353;27;20020;-68
2023/05/09 10:46:04;;;;;;;5.85;4.93;;;;;;;16.08;100.00;101155.63;5103241;28;20362;-69
2023/05/09 10:48:32;;;;;;;6.78;4.85;;;;;;;16.02;100.00;101145.53;5106430;28;20039;-69
2023/05/09 10:50:59;;;;;;;5.18;4.35;;;;;;;15.91;100.00;101140.53;5099228;28;20024;-69
2023/05/09 10:53:40;;;;;;;5.50;4.47;;;;;;;16.13;100.00;101147.03;5101124;28;20039;-69
2023/05/09 10:56:06;;;;;;;5.43;4.93;;;;;;;15.90;100.00;101138.81;5097031;28;20501;-69
2023/05/09 10:58:35;;;;;;;5.13;4.68;;;;;;;15.80;100.00;101141.72;5098143;28;20352;-69
2023/05/09 11:01:02;;;;;;;5.78;5.18;;;;;;;15.84;100.00;101133.13;5103239;28;20019;-69
2023/05/09 11:03:48;;;;;;;5.25;4.72;;;;;;;15.76;100.00;101137.66;5101066;28;20476;-69
2023/05/09 11:06:50;;;;;;;5.95;5.43;;;;;;;15.91;100.00;101130.59;5097385;28;20649;-69
2023/05/09 11:09:28;;;;;;;6.85;5.53;;;;;;;15.86;100.00;101133.78;5097539;28;20066;-69
2023/05/09 11:12:00;;;;;;;5.65;5.07;;;;;;;15.80;100.00;101131.78;5103636;27;20027;-70
2023/05/09 11:14:53;;;;;;;8.02;5.13;;;;;;;15.79;100.00;101127.41;5098842;28;20042;-69
2023/05/09 11:17:21;;;;;;;4.75;4.22;;;;;;;15.60;100.00;101122.34;5099158;28;20096;-69